Arvada, CO (80002)

12:53 AM MST on March 05, 2015 (GMT -0700)
Arvada | Change Station
CLOSE
Current Station
Personal Weather Station
Location: Arvada, CO
Elevation: 5492 ft
Nearby Weather Stations

Elev 5492 ft 39.82 °N, 105.08 °W | Updated 2 minutes ago

Clear
Clear
2.8 °F
Feels Like 3 °F
N
0.0
Wind Variable Wind from ESE

Today
High -- | Low -- °F
--% Chance of Precip.
Yesterday
High -- | Low -- °F
Precip. -- in
6:27 AM 5:56 PM
Full, 100% visible
Pressure 30.17 in
Visibility 10.0 miles
Clouds Clear
Windchill 3 °F
Dew Point 1 °F
Humidity 91%
Rainfall in
Snow Depth Not available.
UV 0 out of 12
Pollen .80 out of 12
Air Quality Not available.
Flu Activity Not available.
METAR KBJC 050735Z AUTO 23004KT 10SM CLR M13/M16 A3017 RMK AO2

More Conditions Fewer Conditions

Pressure 30.17 in
Visibility 10.0 miles
Clouds Clear
Windchill 3 °F
Dew Point 1 °F
Humidity 91%
Rainfall in
Snow Depth Not available.
UV 0 out of 12
Pollen .80 out of 12
Air Quality Not available.
Flu Activity Not available.
METAR KBJC 050735Z AUTO 23004KT 10SM CLR M13/M16 A3017 RMK AO2

More Conditions Fewer Conditions

10-Day Weather Forecast

Almanac

Astronomy

Mar. 05, 2015 Rise Set
Actual Time
Civil Twilight
Nautical Twilight
Astronomical Twilight
Moon
Length of Visible Light
Length of Day
Tomorrow will be .
, % of the Moon is Illuminated

Today's Extremes

State Highs State Lows

Community

WunderPhotos

Upload Photos

1,802,689 photos uploaded!

WunderBlogs® & News

Nearby

Air Quality

  Air Quality AQ Index Pollutant
Not available.

Snow Depth

Station Depth Elevation

Earthquake Activity

City Distance Mag. Time & Date
Minimum magnitude displayed is 2.5.

Coastal Water Temperatures

Place Temperature

Nearby Weather Stations